createdAt,value
2023-05-02T00:00:02.636Z,6.25
2023-05-02T00:02:51.987Z,5.80
2023-05-02T00:05:19.472Z,5.25
2023-05-02T00:07:46.743Z,6.15
2023-05-02T00:10:13.948Z,5.95
2023-05-02T00:12:41.363Z,6.00
2023-05-02T00:15:09.572Z,5.57
2023-05-02T00:17:37.145Z,5.90
2023-05-02T00:20:05.017Z,6.35
2023-05-02T00:22:32.351Z,7.35
2023-05-02T00:24:59.946Z,6.28
2023-05-02T00:27:26.988Z,6.50
2023-05-02T00:29:55.233Z,6.00
2023-05-02T00:32:22.208Z,6.25
2023-05-02T00:34:49.684Z,5.85
2023-05-02T00:37:16.721Z,6.38
2023-05-02T00:39:45.056Z,6.07
2023-05-02T00:42:12.152Z,5.75
2023-05-02T00:44:40.567Z,6.20
2023-05-02T00:47:08.062Z,5.75
2023-05-02T00:49:35.556Z,5.95
2023-05-02T00:52:03.308Z,5.40
2023-05-02T00:54:31.371Z,5.95
2023-05-02T00:56:58.984Z,6.05
2023-05-02T00:59:28.313Z,6.20
2023-05-02T01:02:10.310Z,5.78
2023-05-02T01:04:40.922Z,5.60
2023-05-02T01:07:27.612Z,5.17
2023-05-02T01:10:30.871Z,5.78
2023-05-02T01:13:07.938Z,5.22
2023-05-02T01:15:39.592Z,5.28
2023-05-02T01:18:09.659Z,5.60
2023-05-02T01:20:42.002Z,5.32
2023-05-02T01:23:23.512Z,5.53
2023-05-02T01:28:53.438Z,5.53
2023-05-02T01:31:23.736Z,5.57
2023-05-02T01:33:52.353Z,4.75
2023-05-02T01:36:20.936Z,5.65
2023-05-02T01:38:50.693Z,5.00
2023-05-02T01:41:19.414Z,5.88
2023-05-02T01:43:48.924Z,5.40
2023-05-02T01:46:17.658Z,5.28
2023-05-02T01:48:47.914Z,5.50
2023-05-02T01:51:18.065Z,5.95
2023-05-02T01:53:49.299Z,5.20
2023-05-02T01:56:20.104Z,5.78
2023-05-02T01:58:49.770Z,5.70
2023-05-02T02:01:18.454Z,6.05
2023-05-02T02:03:47.088Z,6.15
2023-05-02T02:06:16.182Z,6.28
2023-05-02T02:08:43.711Z,5.82
2023-05-02T02:11:17.111Z,6.13
2023-05-02T02:13:53.107Z,5.57
2023-05-02T02:16:25.819Z,5.53
2023-05-02T02:18:56.627Z,5.85
2023-05-02T02:21:27.133Z,5.60
2023-05-02T02:23:57.688Z,4.90
2023-05-02T02:26:25.001Z,5.90
2023-05-02T02:28:52.484Z,6.15
2023-05-02T02:31:20.750Z,6.32
2023-05-02T02:33:48.949Z,5.45
2023-05-02T02:36:24.788Z,6.35
2023-05-02T02:39:16.701Z,5.88
2023-05-02T02:42:08.108Z,5.93
2023-05-02T02:44:47.794Z,6.13
2023-05-02T02:47:47.531Z,5.22
2023-05-02T02:50:36.632Z,5.55
2023-05-02T02:53:15.136Z,5.82
2023-05-02T02:55:57.888Z,6.03
2023-05-02T02:59:04.877Z,5.15
2023-05-02T03:01:34.192Z,5.25
2023-05-02T03:04:06.085Z,5.47
2023-05-02T03:06:33.546Z,5.60
2023-05-02T03:09:01.767Z,6.15
2023-05-02T03:11:30.409Z,5.57
2023-05-02T03:13:58.737Z,5.32
2023-05-02T03:16:40.368Z,5.03
2023-05-02T03:19:12.508Z,5.25
2023-05-02T03:21:39.720Z,6.00
2023-05-02T03:24:13.618Z,5.65
2023-05-02T03:26:40.705Z,5.60
2023-05-02T03:29:11.136Z,5.05
2023-05-02T03:31:41.748Z,6.70
2023-05-02T03:34:09.246Z,5.55
2023-05-02T03:36:37.695Z,6.15
2023-05-02T03:39:05.103Z,6.03
2023-05-02T03:41:32.230Z,5.78
2023-05-02T03:44:05.601Z,5.47
2023-05-02T03:46:33.103Z,5.53
2023-05-02T03:49:01.836Z,6.22
2023-05-02T03:51:28.926Z,5.72
2023-05-02T03:53:58.548Z,5.47
2023-05-02T03:56:26.605Z,6.20
2023-05-02T03:59:12.158Z,6.13
2023-05-02T04:01:39.979Z,6.30
2023-05-02T04:04:08.878Z,5.43
2023-05-02T04:06:42.212Z,5.50
2023-05-02T04:09:10.816Z,5.82
2023-05-02T04:11:45.823Z,5.75
2023-05-02T04:14:14.021Z,5.45
2023-05-02T04:16:48.265Z,6.00
2023-05-02T04:19:19.122Z,5.57
2023-05-02T04:21:46.237Z,6.05
2023-05-02T04:24:15.022Z,5.55
2023-05-02T04:26:42.743Z,5.68
2023-05-02T04:29:13.809Z,5.65
2023-05-02T04:31:41.934Z,6.43
2023-05-02T04:34:10.446Z,5.88
2023-05-02T04:36:45.108Z,4.95
2023-05-02T04:39:15.658Z,4.93
2023-05-02T04:41:50.355Z,5.07
2023-05-02T04:44:18.417Z,5.10
2023-05-02T04:46:46.163Z,5.45
2023-05-02T04:49:13.928Z,5.05
2023-05-02T04:51:41.796Z,5.05
2023-05-02T04:54:10.106Z,5.60
2023-05-02T04:56:37.537Z,5.03
2023-05-02T04:59:05.354Z,5.45
2023-05-02T05:01:33.466Z,5.10
2023-05-02T05:04:03.155Z,4.10
2023-05-02T05:06:32.031Z,5.38
2023-05-02T05:09:00.190Z,4.88
2023-05-02T05:11:27.102Z,4.72
2023-05-02T05:13:54.560Z,5.25
2023-05-02T05:16:22.621Z,4.32
2023-05-02T05:18:53.880Z,5.25
2023-05-02T05:21:21.441Z,4.65
2023-05-02T05:23:49.454Z,5.20
2023-05-02T05:26:25.411Z,5.30
2023-05-02T05:28:53.394Z,3.85
2023-05-02T05:31:24.129Z,5.10
2023-05-02T05:33:55.369Z,5.03
2023-05-02T05:36:24.157Z,4.40
2023-05-02T05:38:52.417Z,4.90
2023-05-02T05:41:20.297Z,5.03
2023-05-02T05:43:52.391Z,4.97
2023-05-02T05:46:20.417Z,4.50
2023-05-02T05:48:47.641Z,4.95
2023-05-02T05:51:15.228Z,5.28
2023-05-02T05:53:42.516Z,5.00
2023-05-02T05:56:13.110Z,4.70
2023-05-02T05:58:50.396Z,4.82
2023-05-02T06:01:17.691Z,4.53
2023-05-02T06:03:45.978Z,4.72
2023-05-02T06:06:15.635Z,4.55
2023-05-02T06:08:43.048Z,4.28
2023-05-02T06:11:11.968Z,5.10
2023-05-02T06:13:39.281Z,5.32
2023-05-02T06:16:07.666Z,4.63
2023-05-02T06:18:35.815Z,4.10
2023-05-02T06:21:06.992Z,4.93
2023-05-02T06:23:34.708Z,4.50
2023-05-02T06:26:02.963Z,5.18
2023-05-02T06:28:30.859Z,4.50
2023-05-02T06:31:06.130Z,4.25
2023-05-02T06:33:34.485Z,3.90
2023-05-02T06:36:02.285Z,4.88
2023-05-02T06:38:30.337Z,4.63
2023-05-02T06:40:57.305Z,4.20
2023-05-02T06:43:24.932Z,3.80
2023-05-02T06:45:59.063Z,4.50
2023-05-02T06:48:26.363Z,4.53
2023-05-02T06:50:54.071Z,3.47
2023-05-02T06:53:21.595Z,3.72
2023-05-02T06:55:49.263Z,4.30
2023-05-02T06:58:17.016Z,4.03
2023-05-02T07:00:43.988Z,3.90
2023-05-02T07:03:11.568Z,3.92
2023-05-02T07:05:38.746Z,6.55
2023-05-02T07:08:06.793Z,3.28
2023-05-02T07:10:33.917Z,5.13
2023-05-02T07:13:01.675Z,3.40
2023-05-02T07:15:29.194Z,4.20
2023-05-02T07:17:56.552Z,3.63
2023-05-02T07:20:23.820Z,3.72
2023-05-02T07:22:51.495Z,3.70
2023-05-02T07:25:18.325Z,3.80
2023-05-02T07:27:45.822Z,3.83
2023-05-02T07:30:13.335Z,3.42
2023-05-02T07:32:41.117Z,3.22
2023-05-02T07:35:08.953Z,3.13
2023-05-02T07:37:36.978Z,3.50
2023-05-02T07:40:04.729Z,3.15
2023-05-02T07:42:32.954Z,2.72
2023-05-02T07:45:00.559Z,2.83
2023-05-02T07:47:28.307Z,2.80
2023-05-02T07:49:56.487Z,2.67
2023-05-02T07:52:24.242Z,2.40
2023-05-02T07:54:51.837Z,2.63
2023-05-02T07:57:20.011Z,2.92
2023-05-02T07:59:48.569Z,2.65
2023-05-02T08:02:17.881Z,3.08
2023-05-02T08:04:45.263Z,2.40
2023-05-02T08:07:13.453Z,3.05
2023-05-02T08:09:42.204Z,3.03
2023-05-02T08:12:10.401Z,2.95
2023-05-02T08:14:37.479Z,2.80
2023-05-02T08:17:05.906Z,3.13
2023-05-02T08:19:33.431Z,2.95
2023-05-02T08:22:01.488Z,2.72
2023-05-02T08:24:28.777Z,2.80
2023-05-02T08:26:56.018Z,3.38
2023-05-02T08:29:24.735Z,2.78
2023-05-02T08:31:52.696Z,3.17
2023-05-02T08:34:19.938Z,2.83
2023-05-02T08:36:48.542Z,2.80
2023-05-02T08:39:17.489Z,3.03
2023-05-02T08:41:46.057Z,2.85
2023-05-02T08:44:13.459Z,2.67
2023-05-02T08:46:43.161Z,2.90
2023-05-02T08:49:11.461Z,3.03
2023-05-02T08:51:41.316Z,3.08
2023-05-02T08:54:10.179Z,3.10
2023-05-02T08:56:38.033Z,2.90
2023-05-02T08:59:06.889Z,3.25
2023-05-02T09:01:36.282Z,3.20
2023-05-02T09:04:03.498Z,3.22
2023-05-02T09:06:31.140Z,3.58
2023-05-02T09:09:00.637Z,3.10
2023-05-02T09:11:29.360Z,3.20
2023-05-02T09:13:59.342Z,3.33
2023-05-02T09:16:27.511Z,3.22
2023-05-02T09:18:57.078Z,3.13
2023-05-02T09:21:26.796Z,3.20
2023-05-02T09:23:59.475Z,3.35
2023-05-02T09:26:35.198Z,3.05
2023-05-02T09:29:04.975Z,3.40
2023-05-02T09:31:54.856Z,3.10
2023-05-02T09:34:23.467Z,3.33
2023-05-02T09:36:54.471Z,3.72
2023-05-02T09:39:29.933Z,3.17
2023-05-02T09:41:59.997Z,3.63
2023-05-02T09:44:36.487Z,3.83
2023-05-02T09:47:07.126Z,3.33
2023-05-02T09:49:46.141Z,4.25
2023-05-02T09:52:16.416Z,4.20
2023-05-02T09:54:47.091Z,3.80
2023-05-02T09:57:14.989Z,3.88
2023-05-02T09:59:52.882Z,3.75
2023-05-02T10:02:22.026Z,4.32
2023-05-02T10:04:51.329Z,3.95
2023-05-02T10:07:19.515Z,4.60
2023-05-02T10:09:50.266Z,4.68
2023-05-02T10:12:22.584Z,4.95
2023-05-02T10:14:55.902Z,4.43
2023-05-02T10:17:31.193Z,5.10
2023-05-02T10:20:05.496Z,5.15
2023-05-02T10:22:36.951Z,4.60
2023-05-02T10:25:05.148Z,4.75
2023-05-02T10:27:33.231Z,4.53
2023-05-02T10:30:02.466Z,5.13
2023-05-02T10:32:30.378Z,5.40
2023-05-02T10:34:59.112Z,5.00
2023-05-02T10:37:28.036Z,5.13
2023-05-02T10:39:55.417Z,5.80
2023-05-02T10:42:23.870Z,4.93
2023-05-02T10:44:51.285Z,5.00
2023-05-02T10:47:22.726Z,5.18
2023-05-02T10:55:24.436Z,5.45
2023-05-02T10:57:57.786Z,5.78
2023-05-02T11:00:30.182Z,5.28
2023-05-02T11:02:58.065Z,5.22
2023-05-02T11:05:26.315Z,5.32
2023-05-02T11:08:15.415Z,5.47
2023-05-02T11:10:42.954Z,6.32
2023-05-02T11:13:10.531Z,5.63
2023-05-02T11:15:40.545Z,5.97
2023-05-02T11:18:08.203Z,6.30
2023-05-02T11:20:36.634Z,5.85
2023-05-02T11:23:16.585Z,5.60
2023-05-02T11:25:57.406Z,7.32
2023-05-02T11:28:36.954Z,6.85
2023-05-02T11:31:05.733Z,7.07
2023-05-02T11:33:33.418Z,8.15
2023-05-02T11:36:00.859Z,7.57
2023-05-02T11:38:36.864Z,8.00
2023-05-02T11:41:04.693Z,7.47
2023-05-02T11:43:32.764Z,8.32
2023-05-02T11:46:02.611Z,7.53
2023-05-02T11:48:31.143Z,7.22
2023-05-02T11:51:05.004Z,7.30
2023-05-02T11:53:33.517Z,7.43
2023-05-02T11:56:05.097Z,7.30
2023-05-02T11:58:33.899Z,6.05
2023-05-02T12:01:15.206Z,6.63
2023-05-02T12:03:43.665Z,6.40
2023-05-02T12:06:13.267Z,5.90
2023-05-02T12:08:42.960Z,5.65
2023-05-02T12:11:12.978Z,6.28
2023-05-02T12:13:50.866Z,7.00
2023-05-02T12:16:19.997Z,7.13
2023-05-02T12:18:48.331Z,6.95
2023-05-02T12:21:16.107Z,8.02
2023-05-02T12:23:44.116Z,8.55
2023-05-02T12:26:22.493Z,8.30
2023-05-02T12:28:52.280Z,8.60
2023-05-02T12:31:19.894Z,8.57
2023-05-02T12:33:48.823Z,7.53
2023-05-02T12:36:16.575Z,8.13
2023-05-02T12:38:55.153Z,9.57
2023-05-02T12:41:36.639Z,8.77
2023-05-02T12:44:05.711Z,8.60
2023-05-02T12:46:33.304Z,8.38
2023-05-02T12:49:09.382Z,7.82
2023-05-02T12:51:38.274Z,8.05
2023-05-02T12:54:06.851Z,8.65
2023-05-02T12:56:43.934Z,8.88
2023-05-02T12:59:27.109Z,7.28
2023-05-02T13:01:54.688Z,5.15
2023-05-02T13:04:22.368Z,4.93
2023-05-02T13:06:50.363Z,5.68
2023-05-02T13:09:18.849Z,5.70
2023-05-02T13:11:46.166Z,4.90
2023-05-02T13:14:13.619Z,6.35
2023-05-02T13:16:41.176Z,5.25
2023-05-02T13:19:09.022Z,5.25
2023-05-02T13:21:36.008Z,5.32
2023-05-02T13:24:04.382Z,5.75
2023-05-02T13:26:32.243Z,4.97
2023-05-02T13:28:59.407Z,5.45
2023-05-02T13:31:26.860Z,6.47
2023-05-02T13:33:54.279Z,5.50
2023-05-02T13:36:21.613Z,5.78
2023-05-02T13:38:48.949Z,6.03
2023-05-02T13:41:16.701Z,5.93
2023-05-02T13:43:44.071Z,4.97
2023-05-02T13:46:11.280Z,5.03
2023-05-02T13:48:38.683Z,5.05
2023-05-02T13:51:06.133Z,4.65
2023-05-02T13:53:33.368Z,4.47
2023-05-02T13:56:00.666Z,4.63
2023-05-02T13:58:27.995Z,4.90
2023-05-02T14:00:55.042Z,5.05
2023-05-02T14:03:22.403Z,4.80
2023-05-02T14:05:50.004Z,4.55
2023-05-02T14:08:19.237Z,4.75
2023-05-02T14:10:46.387Z,3.92
2023-05-02T14:13:13.846Z,4.68
2023-05-02T14:15:41.080Z,5.00
2023-05-02T14:18:09.109Z,4.57
2023-05-02T14:20:36.457Z,4.50
2023-05-02T14:23:05.179Z,4.82
2023-05-02T14:25:33.901Z,4.93
2023-05-02T14:28:02.624Z,5.35
2023-05-02T14:30:30.294Z,5.22
2023-05-02T14:32:59.366Z,4.43
2023-05-02T14:35:27.696Z,5.10
2023-05-02T14:37:55.651Z,5.82
2023-05-02T14:40:22.796Z,5.68
2023-05-02T14:42:50.414Z,5.28
2023-05-02T14:45:17.404Z,5.05
2023-05-02T14:47:45.207Z,4.40
2023-05-02T14:50:12.776Z,5.40
2023-05-02T14:52:41.109Z,5.00
2023-05-02T14:55:09.402Z,5.00
2023-05-02T14:57:37.235Z,4.15
2023-05-02T15:00:08.556Z,4.72
2023-05-02T15:02:36.867Z,4.40
2023-05-02T15:05:07.585Z,4.78
2023-05-02T15:07:35.405Z,5.10
2023-05-02T15:10:02.714Z,5.00
2023-05-02T15:12:31.110Z,4.70
2023-05-02T15:14:58.781Z,4.43
2023-05-02T15:17:26.671Z,4.35
2023-05-02T15:19:55.844Z,4.40
2023-05-02T15:22:26.077Z,4.53
2023-05-02T15:24:53.526Z,4.75
2023-05-02T15:27:20.733Z,4.45
2023-05-02T15:29:47.718Z,4.95
2023-05-02T15:32:15.198Z,4.18
2023-05-02T15:34:43.936Z,4.15
2023-05-02T15:37:12.679Z,4.45
2023-05-02T15:39:39.733Z,5.07
2023-05-02T15:42:07.512Z,3.70
2023-05-02T15:44:37.921Z,3.90
2023-05-02T15:47:05.928Z,4.00
2023-05-02T15:49:34.655Z,3.53
2023-05-02T15:52:03.001Z,4.55
2023-05-02T15:54:31.922Z,4.60
2023-05-02T15:56:59.188Z,4.20
2023-05-02T15:59:26.326Z,4.40
2023-05-02T16:01:53.654Z,5.13
2023-05-02T16:04:20.730Z,4.95
2023-05-02T16:06:48.110Z,4.38
2023-05-02T16:09:15.288Z,4.15
2023-05-02T16:11:42.621Z,4.88
2023-05-02T16:14:10.127Z,4.75
2023-05-02T16:16:37.596Z,4.85
2023-05-02T16:19:04.714Z,4.43
2023-05-02T16:21:32.078Z,4.43
2023-05-02T16:23:59.934Z,4.15
2023-05-02T16:26:28.167Z,4.32
2023-05-02T16:28:57.047Z,4.03
2023-05-02T16:31:27.260Z,4.65
2023-05-02T16:33:54.426Z,4.68
2023-05-02T16:36:21.912Z,4.90
2023-05-02T16:38:49.314Z,4.78
2023-05-02T16:41:16.729Z,4.85
2023-05-02T16:43:44.019Z,4.35
2023-05-02T16:46:11.534Z,4.60
2023-05-02T16:48:38.500Z,4.82
2023-05-02T16:51:06.009Z,4.30
2023-05-02T16:53:33.077Z,4.93
2023-05-02T16:56:00.785Z,4.07
2023-05-02T16:58:29.231Z,5.00
2023-05-02T17:00:59.158Z,4.68
2023-05-02T17:03:27.126Z,4.57
2023-05-02T17:05:58.909Z,4.97
2023-05-02T17:10:53.853Z,5.25
2023-05-02T17:13:22.237Z,5.20
2023-05-02T17:15:50.200Z,5.75
2023-05-02T17:18:17.376Z,5.00
2023-05-02T17:20:46.168Z,4.63
2023-05-02T17:23:13.605Z,5.00
2023-05-02T17:25:42.087Z,5.00
2023-05-02T17:28:09.116Z,5.32
2023-05-02T17:30:37.095Z,4.80
2023-05-02T17:33:04.264Z,5.28
2023-05-02T17:35:31.875Z,4.10
2023-05-02T17:37:58.949Z,4.60
2023-05-02T17:40:26.754Z,4.13
2023-05-02T17:42:55.504Z,4.63
2023-05-02T17:45:23.323Z,4.65
2023-05-02T17:47:50.671Z,4.70
2023-05-02T17:50:18.323Z,4.32
2023-05-02T17:52:45.745Z,4.38
2023-05-02T17:55:13.129Z,5.13
2023-05-02T17:57:40.323Z,4.80
2023-05-02T18:00:08.230Z,4.82
2023-05-02T18:02:38.511Z,5.22
2023-05-02T18:05:06.961Z,8.18
2023-05-02T18:07:34.176Z,6.43
2023-05-02T18:10:02.458Z,5.90
2023-05-02T18:12:29.665Z,5.88
2023-05-02T18:14:57.299Z,6.50
2023-05-02T18:17:24.375Z,6.32
2023-05-02T18:19:51.713Z,6.72
2023-05-02T18:22:21.838Z,6.43
2023-05-02T18:24:49.857Z,6.97
2023-05-02T18:27:18.036Z,6.35
2023-05-02T18:29:45.474Z,5.75
2023-05-02T18:32:12.884Z,6.22
2023-05-02T18:34:40.209Z,6.63
2023-05-02T18:37:08.112Z,5.97
2023-05-02T18:39:36.425Z,5.80
2023-05-02T18:42:04.401Z,6.95
2023-05-02T18:44:31.969Z,6.70
2023-05-02T18:46:59.672Z,6.63
2023-05-02T18:49:27.096Z,6.50
2023-05-02T18:51:55.384Z,6.82
2023-05-02T18:54:26.493Z,7.18
2023-05-02T18:56:53.424Z,7.15
2023-05-02T18:59:21.191Z,7.30
2023-05-02T19:01:48.940Z,6.80
2023-05-02T19:04:16.220Z,6.50
2023-05-02T19:06:43.453Z,5.45
2023-05-02T19:09:13.826Z,5.45
2023-05-02T19:11:43.958Z,5.50
2023-05-02T19:14:11.903Z,6.22
2023-05-02T19:16:40.753Z,5.75
2023-05-02T19:19:08.557Z,5.38
2023-05-02T19:21:35.759Z,5.65
2023-05-02T19:24:03.968Z,5.55
2023-05-02T19:26:30.977Z,5.03
2023-05-02T19:28:58.508Z,4.90
2023-05-02T19:31:25.931Z,5.10
2023-05-02T19:33:54.836Z,5.50
2023-05-02T19:36:23.709Z,5.40
2023-05-02T19:38:54.144Z,5.40
2023-05-02T19:41:24.846Z,5.53
2023-05-02T19:43:52.886Z,6.43
2023-05-02T19:46:19.916Z,6.18
2023-05-02T19:48:47.293Z,5.95
2023-05-02T19:51:14.558Z,6.45
2023-05-02T19:53:42.412Z,6.40
2023-05-02T19:56:09.400Z,6.78
2023-05-02T19:58:37.282Z,6.47
2023-05-02T20:01:04.437Z,7.15
2023-05-02T20:03:32.092Z,6.88
2023-05-02T20:05:59.244Z,6.80
2023-05-02T20:08:28.198Z,6.78
2023-05-02T20:10:55.933Z,6.60
2023-05-02T20:13:24.566Z,6.40
2023-05-02T20:15:52.866Z,6.70
2023-05-02T20:18:21.010Z,6.43
2023-05-02T20:20:48.177Z,5.95
2023-05-02T20:23:16.111Z,6.05
2023-05-02T20:25:43.894Z,6.82
2023-05-02T20:28:12.175Z,6.05
2023-05-02T20:30:39.889Z,5.82
2023-05-02T20:33:15.642Z,5.50
2023-05-02T20:35:44.210Z,5.43
2023-05-02T20:38:12.123Z,5.85
2023-05-02T20:40:40.809Z,5.85
2023-05-02T20:43:08.872Z,6.20
2023-05-02T20:45:36.250Z,5.70
2023-05-02T20:48:03.790Z,5.85
2023-05-02T20:50:31.559Z,5.30
2023-05-02T20:52:59.382Z,5.57
2023-05-02T20:55:26.606Z,6.20
2023-05-02T20:57:54.030Z,5.70
2023-05-02T21:00:24.010Z,5.40
2023-05-02T21:02:51.532Z,5.03
2023-05-02T21:05:18.676Z,5.05
2023-05-02T21:07:46.550Z,4.90
2023-05-02T21:10:14.049Z,5.95
2023-05-02T21:12:41.473Z,5.38
2023-05-02T21:15:08.728Z,5.60
2023-05-02T21:17:38.869Z,5.30
2023-05-02T21:20:07.044Z,5.75
2023-05-02T21:22:34.390Z,5.65
2023-05-02T21:25:01.716Z,6.15
2023-05-02T21:27:29.301Z,5.82
2023-05-02T21:29:56.652Z,5.63
2023-05-02T21:32:24.122Z,5.47
2023-05-02T21:34:51.313Z,6.10
2023-05-02T21:37:18.598Z,5.65
2023-05-02T21:39:46.022Z,5.45
2023-05-02T21:42:13.402Z,6.00
2023-05-02T21:44:40.830Z,5.20
2023-05-02T21:47:08.252Z,5.50
2023-05-02T21:49:35.339Z,5.45
2023-05-02T21:52:03.566Z,5.70
2023-05-02T21:54:30.618Z,6.05
2023-05-02T21:56:59.232Z,5.97
2023-05-02T21:59:26.366Z,6.93
2023-05-02T22:01:53.813Z,6.97
2023-05-02T22:04:20.973Z,6.57
2023-05-02T22:06:52.239Z,6.57
2023-05-02T22:09:19.537Z,7.05
2023-05-02T22:11:47.551Z,6.85
2023-05-02T22:14:14.427Z,7.35
2023-05-02T22:16:42.170Z,6.88
2023-05-02T22:19:11.707Z,7.90
2023-05-02T22:21:39.345Z,7.53
2023-05-02T22:24:06.609Z,6.18
2023-05-02T22:26:34.033Z,6.32
2023-05-02T22:29:01.197Z,6.18
2023-05-02T22:31:28.887Z,6.70
2023-05-02T22:33:56.544Z,5.60
2023-05-02T22:36:24.162Z,5.45
2023-05-02T22:38:51.090Z,4.95
2023-05-02T22:41:18.239Z,4.90
2023-05-02T22:43:45.560Z,4.03
2023-05-02T22:46:13.308Z,3.80
2023-05-02T22:48:40.776Z,3.90
2023-05-02T22:51:08.138Z,4.25
2023-05-02T22:53:35.488Z,4.00
2023-05-02T22:56:03.438Z,3.45
2023-05-02T22:58:30.719Z,3.00
2023-05-02T23:00:58.298Z,2.75
2023-05-02T23:03:25.674Z,2.83
2023-05-02T23:05:52.786Z,2.92
2023-05-02T23:08:20.194Z,2.85
2023-05-02T23:10:47.734Z,2.92
2023-05-02T23:13:14.981Z,3.28
2023-05-02T23:15:42.285Z,3.50
2023-05-02T23:18:09.355Z,2.95
2023-05-02T23:20:37.108Z,3.13
2023-05-02T23:23:05.237Z,2.53
2023-05-02T23:25:33.588Z,2.35
2023-05-02T23:28:00.520Z,2.70
2023-05-02T23:30:30.533Z,2.58
2023-05-02T23:33:01.073Z,2.50
2023-05-02T23:35:28.542Z,2.55
2023-05-02T23:37:56.008Z,2.58
2023-05-02T23:40:23.238Z,2.33
2023-05-02T23:42:50.367Z,2.20
2023-05-02T23:45:17.658Z,2.22
2023-05-02T23:47:44.653Z,2.90
2023-05-02T23:50:12.500Z,2.47
2023-05-02T23:52:39.645Z,2.22
2023-05-02T23:55:10.821Z,2.20
2023-05-02T23:57:38.497Z,2.35
